Map

Track Data

SID SEASON NUMBER BASIN SUBBASIN NAME ISO_TIME NATURE LAT LON WMO_WIND WMO_PRES WMO_AGENCY TRACK_TYPE DIST2LAND LANDFALL IFLAG USA_AGENCY USA_ATCF_ID USA_LAT USA_LON USA_RECORD USA_STATUS USA_WIND USA_PRES USA_SSHS USA_R34_NE USA_R34_SE USA_R34_SW USA_R34_NW USA_R50_NE USA_R50_SE USA_R50_SW USA_R50_NW USA_R64_NE USA_R64_SE USA_R64_SW USA_R64_NW USA_POCI USA_ROCI USA_RMW USA_EYE TOKYO_LAT TOKYO_LON TOKYO_GRADE TOKYO_WIND TOKYO_PRES TOKYO_R50_DIR TOKYO_R50_LONG TOKYO_R50_SHORT TOKYO_R30_DIR TOKYO_R30_LONG TOKYO_R30_SHORT TOKYO_LAND CMA_LAT CMA_LON CMA_CAT CMA_WIND CMA_PRES HKO_LAT HKO_LON HKO_CAT HKO_WIND HKO_PRES NEWDELHI_LAT NEWDELHI_LON NEWDELHI_GRADE NEWDELHI_WIND NEWDELHI_PRES NEWDELHI_CI NEWDELHI_DP NEWDELHI_POCI REUNION_LAT REUNION_LON REUNION_TYPE REUNION_WIND REUNION_PRES REUNION_TNUM REUNION_CI REUNION_RMW REUNION_R34_NE REUNION_R34_SE REUNION_R34_SW REUNION_R34_NW REUNION_R50_NE REUNION_R50_SE REUNION_R50_SW REUNION_R50_NW REUNION_R64_NE REUNION_R64_SE REUNION_R64_SW REUNION_R64_NW BOM_LAT BOM_LON BOM_TYPE BOM_WIND BOM_PRES BOM_TNUM BOM_CI BOM_RMW BOM_R34_NE BOM_R34_SE BOM_R34_SW BOM_R34_NW BOM_R50_NE BOM_R50_SE BOM_R50_SW BOM_R50_NW BOM_R64_NE BOM_R64_SE BOM_R64_SW BOM_R64_NW BOM_ROCI BOM_POCI BOM_EYE BOM_POS_METHOD BOM_PRES_METHOD NADI_LAT NADI_LON NADI_CAT NADI_WIND NADI_PRES WELLINGTON_LAT WELLINGTON_LON WELLINGTON_WIND WELLINGTON_PRES DS824_LAT DS824_LON DS824_STAGE DS824_WIND DS824_PRES TD9636_LAT TD9636_LON TD9636_STAGE TD9636_WIND TD9636_PRES TD9635_LAT TD9635_LON TD9635_WIND TD9635_PRES TD9635_ROCI NEUMANN_LAT NEUMANN_LON NEUMANN_CLASS NEUMANN_WIND NEUMANN_PRES MLC_LAT MLC_LON MLC_CLASS MLC_WIND MLC_PRES USA_GUST BOM_GUST BOM_GUST_PER REUNION_GUST REUNION_GUST_PER USA_SEAHGT USA_SEARAD_NE USA_SEARAD_SE USA_SEARAD_SW USA_SEARAD_NW STORM_SPEED STORM_DIR
1886249N15328 1886 29 NA NA NOT_NAMED 1886-09-05 12:00:00 TS 14.5000 -32.0000 main 1560 1560 _____________O -1 14.5000 -32.0000 TD 30 21 281
1886249N15328 1886 29 NA NA NOT_NAMED 1886-09-05 15:00:00 TS 14.7011 -33.0621 main 1678 1678 _____________P -1 14.7011 -33.0621 TD 30 21 281
1886249N15328 1886 29 NA NA NOT_NAMED 1886-09-05 18:00:00 TS 14.9000 -34.1000 main 1785 1785 _____________O -1 14.9000 -34.1000 TD 30 20 281
1886249N15328 1886 29 NA NA NOT_NAMED 1886-09-05 21:00:00 TS 15.0994 -35.1002 main 1892 1892 _____________P -1 15.0994 -35.1002 TD 30 20 282
1886249N15328 1886 29 NA NA NOT_NAMED 1886-09-06 00:00:00 TS 15.3000 -36.1000 main 1999 1997 _____________O -1 15.3000 -36.1000 TD 30 20 282
1886249N15328 1886 29 NA NA NOT_NAMED 1886-09-06 03:00:00 TS 15.5072 -37.1500 main 1988 1927 _____________P -1 15.5072 -37.1500 TD 30 21 281
1886249N15328 1886 29 NA NA NOT_NAMED 1886-09-06 06:00:00 TS 15.7000 -38.2000 main 1919 1846 _____________O -1 15.7000 -38.2000 TD 30 20 280
1886249N15328 1886 29 NA NA NOT_NAMED 1886-09-06 09:00:00 TS 15.8420 -39.2155 main 1846 1793 _____________P -1 15.8420 -39.2155 TD 30 19 279
1886249N15328 1886 29 NA NA NOT_NAMED 1886-09-06 12:00:00 TS 16.0000 -40.2000 main 1785 1737 _____________O -1 16.0000 -40.2000 TD 30 19 282
1886249N15328 1886 29 NA NA NOT_NAMED 1886-09-06 15:00:00 TS 16.2419 -41.1500 main 1737 1700 _____________P -1 16.2419 -41.1500 TD 30 19 285
1886249N15328 1886 29 NA NA NOT_NAMED 1886-09-06 18:00:00 TS 16.5000 -42.1000 main 1696 1658 _____________O -1 16.5000 -42.1000 TD 30 19 284
1886249N15328 1886 29 NA NA NOT_NAMED 1886-09-06 21:00:00 TS 16.6996 -43.0929 main 1652 1611 _____________P -1 16.6996 -43.0929 TD 32 20 282
1886249N15328 1886 29 NA NA NOT_NAMED 1886-09-07 00:00:00 TS 16.9000 -44.1000 main 1604 1563 _____________O -1 16.9000 -44.1000 TS 35 20 283
1886249N15328 1886 29 NA NA NOT_NAMED 1886-09-07 03:00:00 TS 17.1496 -45.1075 main 1563 1543 _____________P -1 17.1496 -45.1075 TS 37 20 285
1886249N15328 1886 29 NA NA NOT_NAMED 1886-09-07 06:00:00 TS 17.4000 -46.1000 main 1538 1505 _____________O -1 17.4000 -46.1000 TS 40 19 281
1886249N15328 1886 29 NA NA NOT_NAMED 1886-09-07 09:00:00 TS 17.5170 -47.0593 main 1500 1487 _____________P -1 17.5170 -47.0593 TS 42 19 282
1886249N15328 1886 29 NA NA NOT_NAMED 1886-09-07 12:00:00 TS 17.8000 -48.0000 main 1493 1488 _____________O -1 17.8000 -48.0000 TS 45 21 299
1886249N15328 1886 29 NA NA NOT_NAMED 1886-09-07 15:00:00 TS 18.5171 -48.9494 main 1523 1523 _____________P -1 18.5171 -48.9494 TS 45 24 312
1886249N15328 1886 29 NA NA NOT_NAMED 1886-09-07 18:00:00 TS 19.4000 -49.9000 main 1538 1516 _____________O -1 19.4000 -49.9000 TS 45 24 312
1886249N15328 1886 29 NA NA NOT_NAMED 1886-09-07 21:00:00 TS 20.1498 -50.8733 main 1508 1471 _____________P -1 20.1498 -50.8733 TS 45 23 310
1886249N15328 1886 29 NA NA NOT_NAMED 1886-09-08 00:00:00 TS 20.9000 -51.8000 main 1471 1406 _____________O -1 20.9000 -51.8000 TS 45 23 313
1886249N15328 1886 29 NA NA NOT_NAMED 1886-09-08 03:00:00 TS 21.6993 -52.6234 main 1406 1350 _____________P -1 21.6993 -52.6234 TS 45 22 317
1886249N15328 1886 29 NA NA NOT_NAMED 1886-09-08 06:00:00 TS 22.5000 -53.4000 main 1350 1300 _____________O -1 22.5000 -53.4000 TS 45 22 316
1886249N15328 1886 29 NA NA NOT_NAMED 1886-09-08 09:00:00 TS 23.2728 -54.2597 main 1294 1262 _____________P -1 23.2728 -54.2597 TS 45 21 316
1886249N15328 1886 29 NA NA NOT_NAMED 1886-09-08 12:00:00 TS 24.0000 -55.0000 main 1263 1253 _____________O -1 24.0000 -55.0000 TS 45 18 322
1886249N15328 1886 29 NA NA NOT_NAMED 1886-09-08 15:00:00 TS 24.6718 -55.4688 main 1258 1256 _____________P -1 24.6718 -55.4688 TS 45 15 331
1886249N15328 1886 29 NA NA NOT_NAMED 1886-09-08 18:00:00 TS 25.3000 -55.8000 main 1270 1269 _____________O -1 25.3000 -55.8000 TS 45 14 333
1886249N15328 1886 29 NA NA NOT_NAMED 1886-09-08 21:00:00 TS 25.8999 -56.1581 main 1279 1279 _____________P -1 25.8999 -56.1581 TS 45 14 332
1886249N15328 1886 29 NA NA NOT_NAMED 1886-09-09 00:00:00 TS 26.5000 -56.5000 main 1300 1300 _____________O -1 26.5000 -56.5000 TS 45 14 333
1886249N15328 1886 29 NA NA NOT_NAMED 1886-09-09 03:00:00 TS 27.1501 -56.8798 main 1326 1326 _____________P -1 27.1501 -56.8798 TS 42 14 334
1886249N15328 1886 29 NA NA NOT_NAMED 1886-09-09 06:00:00 TS 27.8000 -57.2000 main 1355 1355 _____________O -1 27.8000 -57.2000 TS 40 14 340
1886249N15328 1886 29 NA NA NOT_NAMED 1886-09-09 09:00:00 TS 28.4448 -57.4250 main 1394 1394 _____________P -1 28.4448 -57.4250 TS 37 12 348
1886249N15328 1886 29 NA NA NOT_NAMED 1886-09-09 12:00:00 TS 29.0000 -57.5000 main 1442 1442 _____________O -1 29.0000 -57.5000 TS 35 10 358
1886249N15328 1886 29 NA NA NOT_NAMED 1886-09-09 15:00:00 TS 29.3949 -57.4252 main 1483 1483 _____________P -1 29.3949 -57.4252 TS 32 8 21
1886249N15328 1886 29 NA NA NOT_NAMED 1886-09-09 18:00:00 TS 29.7000 -57.2000 main 1522 1522 _____________O -1 29.7000 -57.2000 TD 30 8 37
1886249N15328 1886 29 NA NA NOT_NAMED 1886-09-09 21:00:00 TS 30.0074 -56.9023 main 1566 1566 _____________P -1 30.0074 -56.9023 TD 30 9 45
1886249N15328 1886 29 NA NA NOT_NAMED 1886-09-10 00:00:00 TS 30.3000 -56.5000 main 1616 1616 _____________O -1 30.3000 -56.5000 TD 30 10 52
1886249N15328 1886 29 NA NA NOT_NAMED 1886-09-10 03:00:00 TS 30.6000 -56.0224 main 1653 1641 _____________P -1 30.6000 -56.0224 TD 30 11 55
1886249N15328 1886 29 NA NA NOT_NAMED 1886-09-10 06:00:00 TS 30.9000 -55.5000 main 1646 1635 _____________O -1 30.9000 -55.5000 TD 30 11 54
1886249N15328 1886 29 NA NA NOT_NAMED 1886-09-10 09:00:00 TS 31.2372 -55.0078 main 1640 1625 _____________P -1 31.2372 -55.0078 TD 30 10 55
1886249N15328 1886 29 NA NA NOT_NAMED 1886-09-10 12:00:00 TS 31.5000 -54.5000 main 1628 1623 _____________O -1 31.5000 -54.5000 TD 30 10 69
1886249N15328 1886 29 NA NA NOT_NAMED 1886-09-10 15:00:00 TS 31.5799 -53.9567 main 1633 1633 _____________P -1 31.5799 -53.9567 TD 27 9 84
1886249N15328 1886 29 NA NA NOT_NAMED 1886-09-10 18:00:00 TS 31.6000 -53.4000 main 1653 1653 _____________O -1 31.6000 -53.4000 TD 25 9 83
1886249N15328 1886 29 NA NA NOT_NAMED 1886-09-10 21:00:00 TS 31.6998 -52.8501 main 1658 1648 _____________P -1 31.6998 -52.8501 TD 25 10 78
1886249N15328 1886 29 NA NA NOT_NAMED 1886-09-11 00:00:00 TS 31.8000 -52.3000 main 1649 1640 _____________O -1 31.8000 -52.3000 TD 25 9 80
1886249N15328 1886 29 NA NA NOT_NAMED 1886-09-11 03:00:00 TS 31.8572 -51.7573 main 1640 1640 _____________P -1 31.8572 -51.7573 TD 25 9 84
1886249N15328 1886 29 NA NA NOT_NAMED 1886-09-11 06:00:00 TS 31.9000 -51.2000 main 1645 1645 _____________O -1 31.9000 -51.2000 TD 25 10 85
1886249N15328 1886 29 NA NA NOT_NAMED 1886-09-11 09:00:00 TS 31.9482 -50.6102 main 1651 1640 _____________P -1 31.9482 -50.6102 TD 25 10 84
1886249N15328 1886 29 NA NA NOT_NAMED 1886-09-11 12:00:00 TS 32.0000 -50.0000 main 1647 _____________O -1 32.0000 -50.0000 TD 25 10 84

About IBTrACS Database

This database is a web-friendly format of International Best Track Archive for Climate Stewardship (IBTrACS), a global best track data archive curated by NOAA dating back to 1842.

Updated: 2021-12-08